Terminal Aerodrome Forecast
Issued by NWS Boston, MA

Home | Current Version | Previous Version | Text Only | Print | Product List | Glossary On
Versions: 1 2 3 4 5 6 7 8 9 10 11 12 13 14 15 16 17 18 19 20 21 22 23 24 25 26 27 28 29 30 31 32 33 34 35 36 37 38 39 40
000
FTUS41 KBOX 230550
TAFBDL
TAF
KBDL 230550Z 2306/2412 18006KT P6SM FEW250
     FM231400 21008KT P6SM FEW050
     FM232000 21010KT P6SM BKN050
     FM232200 21007KT P6SM VCTS OVC050CB
     FM240300 VRB03KT 3SM -SHRA BR OVC040
     FM241100 33005KT P6SM BKN070=

USA.gov is the U.S. government's official web portal to all federal, state and local government web resources and services.